Time;durP1;ratioP1;P1;durP2;ratioP2;P2;SDS_P1;SDS_P2;PMS_P1;PMS_P2;Temp;Humidity;BMP_temperature;BMP_pressure;BME280_temperature;BME280_humidity;BME280_pressure;Samples;Min_cycle;Max_cycle;Signal;HPM_P1;HPM_P2
2021/01/14 00:00:42;;;;;;;3.35;1.37;;;9.30;74.70;;;;;;2484487;55;20913;-79
2021/01/14 00:03:15;;;;;;;3.35;1.10;;;9.40;74.50;;;;;;2463024;55;22235;-80
2021/01/14 00:05:41;;;;;;;;;;;9.40;74.60;;;;;;2492820;55;21029;-79
2021/01/14 00:08:11;;;;;;;2.05;0.93;;;9.40;74.20;;;;;;2484614;55;20078;-79
2021/01/14 00:10:38;;;;;;;2.40;0.90;;;9.40;74.30;;;;;;2484482;55;20961;-80
2021/01/14 00:13:07;;;;;;;1.75;0.82;;;9.40;74.40;;;;;;2485402;55;20961;-79
2021/01/14 00:15:34;;;;;;;1.95;0.90;;;9.40;74.30;;;;;;2488206;55;20920;-80
2021/01/14 00:18:00;;;;;;;3.08;1.02;;;9.40;74.30;;;;;;2490201;55;21229;-80
2021/01/14 00:20:27;;;;;;;2.10;1.00;;;9.40;74.20;;;;;;2490277;55;21400;-79
2021/01/14 00:22:54;;;;;;;2.60;0.85;;;9.40;74.80;;;;;;2491486;55;20961;-80
2021/01/14 00:25:23;;;;;;;2.87;1.00;;;9.40;73.90;;;;;;2262560;56;20957;-79
2021/01/14 00:27:51;;;;;;;2.17;1.00;;;9.40;73.90;;;;;;2490644;55;21069;-80
2021/01/14 00:30:24;;;;;;;2.47;0.90;;;9.40;73.90;;;;;;2489187;55;20957;-80
2021/01/14 00:32:50;;;;;;;2.08;1.05;;;9.40;73.90;;;;;;2485224;55;21029;-80
2021/01/14 00:35:16;;;;;;;2.53;0.90;;;9.40;73.90;;;;;;2489378;55;20956;-80
2021/01/14 00:37:53;;;;;;;2.42;1.10;;;9.40;73.90;;;;;;2484161;55;21076;-80
2021/01/14 00:40:27;;;;;;;3.08;1.12;;;9.30;73.80;;;;;;2483818;55;21033;-80
2021/01/14 00:42:54;;;;;;;2.37;0.90;;;9.40;74.00;;;;;;2489076;55;21021;-81
2021/01/14 00:45:22;;;;;;;2.40;1.00;;;9.30;73.90;;;;;;2489280;55;21000;-80
2021/01/14 00:47:49;;;;;;;2.03;0.75;;;9.30;73.90;;;;;;2488831;55;21032;-80
2021/01/14 00:50:17;;;;;;;2.17;0.98;;;9.30;73.90;;;;;;2488685;55;21043;-80
2021/01/14 00:52:47;;;;;;;2.30;0.90;;;9.30;73.80;;;;;;2483854;55;22017;-80
2021/01/14 00:55:14;;;;;;;2.20;0.90;;;9.30;73.50;;;;;;2488596;55;20944;-80
2021/01/14 00:57:59;;;;;;;2.85;1.20;;;9.30;73.00;;;;;;2486452;55;20942;-80
2021/01/14 01:00:25;;;;;;;2.42;1.00;;;9.20;72.30;;;;;;2470495;55;21166;-80
2021/01/14 01:02:52;;;;;;;2.50;1.05;;;9.20;72.20;;;;;;2485777;55;21467;-80
2021/01/14 01:05:20;;;;;;;1.98;0.90;;;9.10;72.00;;;;;;2482595;55;21061;-80
2021/01/14 01:07:51;;;;;;;2.40;1.20;;;9.10;72.60;;;;;;2483566;55;20968;-80
2021/01/14 01:10:17;;;;;;;3.22;1.50;;;9.00;71.90;;;;;;2486189;55;20957;-80
2021/01/14 01:12:44;;;;;;;3.55;1.70;;;9.00;71.80;;;;;;2486575;55;20945;-80
2021/01/14 01:15:11;;;;;;;2.33;0.85;;;8.90;71.80;;;;;;2484841;55;21819;-80
2021/01/14 01:17:37;;;;;;;2.55;1.00;;;8.80;71.30;;;;;;2488219;55;21051;-80
2021/01/14 01:20:05;;;;;;;2.25;0.70;;;8.80;70.60;;;;;;2478772;55;20947;-79
2021/01/14 01:22:32;;;;;;;2.17;0.80;;;8.70;70.00;;;;;;2485103;55;21701;-80
2021/01/14 01:24:58;;;;;;;1.50;0.60;;;8.60;69.40;;;;;;2486827;55;21329;-80
2021/01/14 01:27:26;;;;;;;2.58;0.70;;;8.40;68.90;;;;;;2484779;55;21849;-80
2021/01/14 01:29:52;;;;;;;1.58;0.62;;;8.30;68.60;;;;;;2487469;55;20938;-80
2021/01/14 01:32:18;;;;;;;2.05;0.60;;;8.20;68.50;;;;;;2488175;55;20962;-80
2021/01/14 01:34:47;;;;;;;1.87;0.60;;;8.10;68.50;;;;;;2489067;55;21019;-80
2021/01/14 01:37:13;;;;;;;1.67;0.60;;;7.90;68.40;;;;;;2484698;55;20953;-79
2021/01/14 01:39:40;;;;;;;1.40;0.60;;;7.80;68.50;;;;;;2484431;55;21714;-80
2021/01/14 01:42:06;;;;;;;1.25;0.52;;;7.80;68.70;;;;;;2261234;56;21644;-80
2021/01/14 01:44:34;;;;;;;1.95;0.70;;;7.60;68.60;;;;;;2484820;55;21434;-79
2021/01/14 01:47:07;;;;;;;1.65;0.60;;;7.40;68.70;;;;;;2480341;55;21562;-80
2021/01/14 01:49:37;;;;;;;1.70;0.60;;;7.40;69.20;;;;;;2480547;55;21618;-80
2021/01/14 01:52:06;;;;;;;1.40;0.60;;;7.30;69.40;;;;;;2479032;55;20960;-79
2021/01/14 01:54:33;;;;;;;1.45;0.60;;;7.20;69.40;;;;;;2478425;55;20997;-81
2021/01/14 01:57:01;;;;;;;1.67;0.60;;;7.10;69.50;;;;;;2478444;55;20961;-79
2021/01/14 01:59:30;;;;;;;1.80;0.77;;;7.00;69.40;;;;;;2481036;55;21029;-80
2021/01/14 02:01:56;;;;;;;1.12;0.57;;;7.00;69.40;;;;;;2472762;55;21088;-80
2021/01/14 02:04:27;;;;;;;1.77;0.60;;;6.70;69.10;;;;;;2474750;55;21484;-80
2021/01/14 02:07:01;;;;;;;1.90;0.70;;;6.80;69.40;;;;;;2473448;55;20968;-80
2021/01/14 02:09:27;;;;;;;1.55;0.80;;;6.80;69.30;;;;;;2476713;55;22166;-80
2021/01/14 02:12:04;;;;;;;1.98;0.68;;;6.70;69.20;;;;;;2460268;55;22007;-80
2021/01/14 02:14:31;;;;;;;1.92;0.62;;;6.70;69.20;;;;;;2477381;55;20957;-81
2021/01/14 02:16:58;;;;;;;1.67;0.55;;;6.60;69.40;;;;;;2476816;55;21651;-80
2021/01/14 02:19:37;;;;;;;1.10;0.50;;;6.50;69.40;;;;;;2477484;55;20981;-80
2021/01/14 02:22:13;;;;;;;1.48;0.57;;;6.50;69.60;;;;;;2476678;55;21570;-80
2021/01/14 02:25:25;;;;;;;3.20;0.68;;;6.40;69.50;;;;;;2467573;55;21873;-80
2021/01/14 02:27:53;;;;;;;0.93;0.40;;;6.30;69.40;;;;;;2486727;55;21794;-79
2021/01/14 02:30:20;;;;;;;1.87;0.68;;;6.30;69.90;;;;;;2484263;55;21012;-81
2021/01/14 02:32:48;;;;;;;1.58;0.60;;;6.20;69.70;;;;;;2464092;55;20998;-81
2021/01/14 02:35:15;;;;;;;1.10;0.50;;;6.20;69.90;;;;;;2483630;55;20946;-80
2021/01/14 02:37:43;;;;;;;2.17;0.50;;;6.10;70.10;;;;;;2488704;55;20961;-81
2021/01/14 02:40:11;;;;;;;1.40;0.60;;;6.10;70.40;;;;;;2488406;55;21009;-80
2021/01/14 02:42:37;;;;;;;1.73;0.60;;;6.00;70.50;;;;;;2488035;55;20961;-81
2021/01/14 02:45:05;;;;;;;1.30;0.57;;;6.00;70.70;;;;;;2489771;55;21447;-80
2021/01/14 02:47:35;;;;;;;1.27;0.55;;;6.00;71.00;;;;;;2256238;56;20964;-81
2021/01/14 02:50:04;;;;;;;0.85;0.40;;;6.00;71.10;;;;;;2483730;55;20925;-81
2021/01/14 02:52:30;;;;;;;1.27;0.45;;;6.00;71.20;;;;;;2481451;55;20968;-81
2021/01/14 02:55:02;;;;;;;0.95;0.55;;;6.00;71.30;;;;;;2481573;55;20949;-81
2021/01/14 02:57:28;;;;;;;1.45;0.60;;;6.00;71.30;;;;;;2476450;55;21414;-81
2021/01/14 02:59:56;;;;;;;1.40;0.50;;;6.10;71.40;;;;;;2255291;56;21049;-80
2021/01/14 03:02:23;;;;;;;1.52;0.70;;;6.00;71.40;;;;;;2455437;55;22130;-79
2021/01/14 03:04:50;;;;;;;1.20;0.50;;;6.00;71.30;;;;;;2479543;55;20937;-81
2021/01/14 03:07:16;;;;;;;1.75;0.60;;;5.90;71.00;;;;;;2473972;55;20988;-80
2021/01/14 03:09:43;;;;;;;0.98;0.47;;;5.90;70.90;;;;;;2475860;55;22016;-79
2021/01/14 03:12:12;;;;;;;1.37;0.50;;;5.90;70.90;;;;;;2478817;55;21015;-81
2021/01/14 03:14:39;;;;;;;1.20;0.55;;;5.90;70.80;;;;;;2474879;55;20997;-80
2021/01/14 03:17:05;;;;;;;1.20;0.50;;;5.90;70.90;;;;;;2474889;55;20969;-81
2021/01/14 03:19:32;;;;;;;1.58;0.50;;;5.90;70.90;;;;;;2476054;55;20925;-80
2021/01/14 03:21:59;;;;;;;1.08;0.50;;;5.90;71.00;;;;;;2482477;55;20953;-80
2021/01/14 03:24:35;;;;;;;1.67;0.62;;;5.90;71.80;;;;;;2483076;55;20902;-81
2021/01/14 03:27:02;;;;;;;1.77;0.62;;;5.80;70.90;;;;;;2489339;55;20937;-81
2021/01/14 03:29:28;;;;;;;2.05;0.77;;;5.80;71.10;;;;;;2478981;55;21750;-81
2021/01/14 03:32:00;;;;;;;1.83;0.65;;;5.80;71.20;;;;;;2267320;56;21003;-81
2021/01/14 03:34:28;;;;;;;2.25;0.82;;;5.80;71.30;;;;;;2485333;55;21092;-81
2021/01/14 03:36:57;;;;;;;1.00;0.57;;;5.80;71.30;;;;;;2486738;55;20977;-80
2021/01/14 03:39:24;;;;;;;1.75;0.70;;;5.80;71.30;;;;;;2482807;55;21544;-80
2021/01/14 03:41:51;;;;;;;2.03;0.80;;;5.80;71.20;;;;;;2483296;55;20938;-81
2021/01/14 03:44:18;;;;;;;2.75;0.82;;;5.80;71.10;;;;;;2483177;55;21056;-81
2021/01/14 03:46:50;;;;;;;2.67;0.95;;;5.80;70.80;;;;;;2481867;55;21790;-81
2021/01/14 03:49:17;;;;;;;1.65;0.73;;;5.70;70.90;;;;;;2481498;55;20926;-80
2021/01/14 03:51:48;;;;;;;2.65;0.90;;;5.70;70.80;;;;;;2482489;55;20909;-80
2021/01/14 03:54:15;;;;;;;1.95;0.80;;;5.70;70.90;;;;;;2483218;55;21028;-79
2021/01/14 03:56:41;;;;;;;1.80;0.80;;;5.70;70.90;;;;;;2482524;55;20985;-81
2021/01/14 03:59:08;;;;;;;2.72;1.02;;;5.70;71.00;;;;;;2482052;55;20956;-81
2021/01/14 04:01:35;;;;;;;2.62;0.80;;;5.60;70.90;;;;;;2482464;55;20929;-81
2021/01/14 04:04:03;;;;;;;2.17;0.98;;;5.60;71.00;;;;;;2254608;56;20922;-81
2021/01/14 04:06:37;;;;;;;1.73;0.70;;;5.60;70.90;;;;;;2485596;55;20981;-80
2021/01/14 04:09:05;;;;;;;2.40;1.00;;;5.60;71.00;;;;;;2485522;55;20945;-83
2021/01/14 04:11:31;;;;;;;2.47;0.90;;;5.60;71.20;;;;;;2487586;55;21049;-78
2021/01/14 04:13:58;;;;;;;2.47;0.85;;;5.60;71.30;;;;;;2489195;55;21347;-80
2021/01/14 04:16:30;;;;;;;2.17;0.82;;;5.60;71.40;;;;;;2258923;56;21041;-80
2021/01/14 04:18:56;;;;;;;1.92;0.80;;;5.60;71.40;;;;;;2488342;55;21727;-80
2021/01/14 04:21:25;;;;;;;1.75;0.80;;;5.60;71.30;;;;;;2487808;55;21092;-80
2021/01/14 04:23:51;;;;;;;1.67;0.68;;;5.60;71.30;;;;;;2259307;56;21010;-80
2021/01/14 04:26:18;;;;;;;1.87;0.75;;;5.60;71.10;;;;;;2488353;55;20993;-80
2021/01/14 04:28:45;;;;;;;2.03;0.70;;;5.50;71.10;;;;;;2488405;55;21659;-80
2021/01/14 04:31:12;;;;;;;1.92;0.80;;;5.50;71.20;;;;;;2487327;55;20980;-80
2021/01/14 04:33:41;;;;;;;2.12;0.80;;;5.50;71.30;;;;;;2484480;55;21004;-80
2021/01/14 04:36:08;;;;;;;2.65;0.70;;;5.50;71.30;;;;;;2483513;55;20961;-80
2021/01/14 04:38:35;;;;;;;1.35;0.65;;;5.50;71.20;;;;;;2479677;55;20984;-79
2021/01/14 04:41:03;;;;;;;1.62;0.60;;;5.50;71.30;;;;;;2477503;55;20925;-79
2021/01/14 04:43:31;;;;;;;2.05;0.80;;;5.50;71.10;;;;;;2478076;55;21112;-80
2021/01/14 04:46:05;;;;;;;1.98;0.80;;;5.50;71.30;;;;;;2477530;55;20989;-78
2021/01/14 04:48:39;;;;;;;2.80;0.93;;;5.50;71.30;;;;;;2473706;55;22178;-79
2021/01/14 04:51:11;;;;;;;1.35;0.60;;;5.40;71.00;;;;;;2457352;55;20937;-79
2021/01/14 04:53:39;;;;;;;1.50;0.65;;;5.50;70.90;;;;;;2480956;55;21613;-79
2021/01/14 04:56:10;;;;;;;1.90;0.70;;;5.50;70.80;;;;;;2254544;56;21489;-79
2021/01/14 04:58:39;;;;;;;1.83;0.62;;;5.50;70.70;;;;;;2481801;55;20979;-79
2021/01/14 05:01:22;;;;;;;1.83;0.80;;;5.60;70.70;;;;;;2482431;55;20937;-79
2021/01/14 05:03:52;;;;;;;2.17;0.62;;;5.40;70.50;;;;;;2484542;55;21610;-79
2021/01/14 05:06:22;;;;;;;1.95;0.70;;;5.40;71.20;;;;;;2483723;55;20940;-80
2021/01/14 05:08:54;;;;;;;1.25;0.52;;;5.40;70.40;;;;;;2490536;55;20977;-80
2021/01/14 05:11:21;;;;;;;1.55;0.50;;;5.30;70.20;;;;;;2485447;55;21769;-80
2021/01/14 05:14:18;;;;;;;1.90;0.75;;;5.30;70.20;;;;;;2490412;55;21406;-81
2021/01/14 05:16:47;;;;;;;2.03;0.77;;;5.30;70.00;;;;;;2489709;55;21601;-80
2021/01/14 05:19:13;;;;;;;2.10;0.73;;;5.30;70.00;;;;;;2485818;55;20913;-80
2021/01/14 05:21:41;;;;;;;1.80;0.90;;;5.40;70.00;;;;;;2490214;55;20914;-81
2021/01/14 05:24:13;;;;;;;2.80;0.98;;;5.20;69.80;;;;;;2491040;55;20976;-83
2021/01/14 05:26:45;;;;;;;;;;;5.20;69.80;;;;;;2494354;55;21029;-80
2021/01/14 05:29:18;;;;;;;6.55;2.40;;;5.20;69.90;;;;;;2486815;55;20060;-83
2021/01/14 05:31:50;;;;;;;6.32;2.22;;;5.10;69.50;;;;;;2486468;55;21024;-83
2021/01/14 05:34:20;;;;;;;6.20;1.80;;;5.10;69.40;;;;;;2486323;55;20933;-82
2021/01/14 05:37:05;;;;;;;4.93;2.17;;;5.10;69.40;;;;;;2482088;55;21422;-82
2021/01/14 05:39:41;;;;;;;4.35;2.00;;;5.00;69.40;;;;;;2484743;55;20961;-83
2021/01/14 05:42:11;;;;;;;4.00;1.90;;;5.00;69.50;;;;;;2461616;55;20937;-83
2021/01/14 05:44:38;;;;;;;5.12;2.17;;;5.00;69.50;;;;;;2483405;55;21434;-83
2021/01/14 05:47:21;;;;;;;4.85;2.28;;;4.90;69.30;;;;;;2475348;55;21009;-83
2021/01/14 05:50:04;;;;;;;3.85;1.77;;;4.90;69.30;;;;;;2476894;55;21899;-81
2021/01/14 05:52:32;;;;;;;;;;;4.90;69.40;;;;;;2465647;55;20991;-82
2021/01/14 05:55:08;;;;;;;3.70;1.55;;;4.90;69.40;;;;;;2482184;55;20054;-81
2021/01/14 05:57:38;;;;;;;2.72;1.23;;;4.80;69.30;;;;;;2460620;55;21112;-80
2021/01/14 06:00:15;;;;;;;2.72;1.30;;;4.80;69.40;;;;;;2484926;55;20977;-81
2021/01/14 06:02:42;;;;;;;3.55;1.60;;;4.90;69.60;;;;;;2491140;55;20957;-83
2021/01/14 06:05:33;;;;;;;3.35;1.33;;;4.80;69.60;;;;;;2496568;55;21041;-83
2021/01/14 06:08:02;;;;;;;2.65;1.20;;;4.70;69.60;;;;;;2495347;55;20989;-82
2021/01/14 06:10:31;;;;;;;2.30;1.15;;;4.70;69.60;;;;;;2490484;55;21012;-83
2021/01/14 06:12:58;;;;;;;1.73;0.82;;;4.70;69.80;;;;;;2493169;55;20914;-83
2021/01/14 06:15:25;;;;;;;1.80;0.70;;;4.70;69.70;;;;;;2492717;55;20929;-83
2021/01/14 06:17:53;;;;;;;1.83;0.80;;;4.70;69.80;;;;;;2491487;55;21527;-80
2021/01/14 06:20:31;;;;;;;2.60;1.00;;;4.60;69.60;;;;;;2490467;55;20985;-80
2021/01/14 06:22:58;;;;;;;2.97;1.27;;;4.60;69.70;;;;;;2486349;55;20929;-81
2021/01/14 06:25:26;;;;;;;7.03;3.20;;;4.60;69.80;;;;;;2490307;55;21020;-82
2021/01/14 06:28:01;;;;;;;7.55;3.60;;;4.60;69.80;;;;;;2490160;55;21012;-82
2021/01/14 06:30:30;;;;;;;8.18;3.58;;;4.60;69.90;;;;;;2490528;55;21461;-83
2021/01/14 06:33:01;;;;;;;5.25;2.58;;;4.60;69.90;;;;;;2490918;55;20933;-82
2021/01/14 06:35:27;;;;;;;5.07;2.92;;;4.60;69.90;;;;;;2490639;55;20966;-82
2021/01/14 06:37:55;;;;;;;6.45;3.30;;;4.50;69.90;;;;;;2487084;55;20921;-82
2021/01/14 06:40:27;;;;;;;5.35;2.58;;;4.50;70.00;;;;;;2487602;55;20945;-82
2021/01/14 06:42:55;;;;;;;;;;;4.50;70.00;;;;;;2494332;55;20988;-81
2021/01/14 06:45:21;;;;;;;5.12;2.62;;;4.50;69.90;;;;;;2486792;55;20041;-82
2021/01/14 06:47:48;;;;;;;5.85;2.65;;;4.50;69.90;;;;;;2485556;55;21402;-80
2021/01/14 06:50:24;;;;;;;7.20;3.67;;;4.50;70.10;;;;;;2489720;55;20937;-80
2021/01/14 06:53:36;;;;;;;7.70;3.78;;;4.50;70.20;;;;;;2490063;55;20925;-80
2021/01/14 06:56:03;;;;;;;6.25;3.03;;;4.50;70.10;;;;;;2490005;55;21017;-80
2021/01/14 06:58:30;;;;;;;10.13;4.15;;;4.40;70.00;;;;;;2490471;55;21057;-81
2021/01/14 07:01:00;;;;;;;9.93;4.10;;;4.40;70.10;;;;;;2488099;55;20965;-82
2021/01/14 07:03:27;;;;;;;9.38;4.87;;;4.60;70.30;;;;;;2486970;55;21001;-80
2021/01/14 07:06:06;;;;;;;8.43;4.30;;;4.50;70.20;;;;;;2489885;55;20940;-81
2021/01/14 07:09:07;;;;;;;6.75;3.55;;;4.50;70.40;;;;;;2479412;55;21019;-80
2021/01/14 07:11:33;;;;;;;6.50;3.15;;;4.50;70.40;;;;;;2488501;55;21545;-86
2021/01/14 07:14:10;;;;;;;5.90;3.05;;;4.50;70.40;;;;;;2487912;55;21008;-82
2021/01/14 07:16:58;;;;;;;7.20;3.33;;;4.50;70.50;;;;;;2489902;55;21025;-82
2021/01/14 07:19:25;;;;;;;6.80;3.15;;;4.50;70.50;;;;;;2487265;55;20949;-83
2021/01/14 07:21:58;;;;;;;6.95;3.22;;;4.50;70.50;;;;;;2490139;55;20989;-82
2021/01/14 07:24:30;;;;;;;6.80;3.05;;;4.40;70.40;;;;;;2485968;55;20933;-81
2021/01/14 07:26:58;;;;;;;8.80;4.12;;;4.50;70.70;;;;;;2459145;55;21029;-82
2021/01/14 07:29:26;;;;;;;8.60;4.57;;;4.50;70.70;;;;;;2484326;55;20993;-81
2021/01/14 07:31:59;;;;;;;7.57;3.80;;;4.50;70.50;;;;;;2484363;55;20977;-81
2021/01/14 07:34:46;;;;;;;7.43;3.58;;;4.50;70.60;;;;;;2483628;55;21090;-80
2021/01/14 07:37:53;;;;;;;7.43;4.10;;;4.50;71.40;;;;;;2486653;55;21078;-81
2021/01/14 07:40:27;;;;;;;6.78;3.78;;;4.40;70.50;;;;;;2253333;56;21089;-83
2021/01/14 07:42:54;;;;;;;7.00;3.78;;;4.50;70.60;;;;;;2485706;55;20949;-81
2021/01/14 07:45:20;;;;;;;9.27;4.50;;;4.40;70.50;;;;;;2484737;55;21021;-81
2021/01/14 07:48:35;;;;;;;8.90;4.68;;;4.40;70.50;;;;;;2485852;55;20952;-81
2021/01/14 07:51:03;;;;;;;8.48;4.65;;;4.40;70.50;;;;;;2487841;55;20985;-82
2021/01/14 07:53:29;;;;;;;7.68;3.85;;;4.40;70.50;;;;;;2489357;55;20973;-81
2021/01/14 07:55:56;;;;;;;5.32;3.10;;;4.40;70.50;;;;;;2486147;55;20929;-81
2021/01/14 07:58:45;;;;;;;7.72;4.82;;;4.40;70.60;;;;;;2490172;55;20921;-81
2021/01/14 08:01:16;;;;;;;7.93;4.82;;;4.40;70.70;;;;;;2490040;55;20933;-80
2021/01/14 08:03:45;;;;;;;8.68;4.97;;;4.40;70.70;;;;;;2490743;55;21718;-80
2021/01/14 08:06:29;;;;;;;9.60;5.10;;;4.50;70.80;;;;;;2489885;55;21664;-80
2021/01/14 08:09:07;;;;;;;9.88;5.65;;;4.50;70.90;;;;;;2262111;56;21005;-80
2021/01/14 08:12:38;;;;;;;8.70;4.65;;;4.50;70.80;;;;;;2488360;55;20954;-81
2021/01/14 08:15:04;;;;;;;8.77;4.78;;;4.50;70.80;;;;;;2490288;55;20972;-80
2021/01/14 08:17:31;;;;;;;7.87;4.53;;;4.50;70.80;;;;;;2489446;55;20976;-81
2021/01/14 08:19:58;;;;;;;7.43;3.92;;;4.50;70.70;;;;;;2484831;55;21001;-81
2021/01/14 08:22:26;;;;;;;6.97;4.07;;;4.50;70.70;;;;;;2490204;55;20936;-81
2021/01/14 08:24:57;;;;;;;6.50;3.92;;;4.50;70.80;;;;;;2486350;55;20921;-81
2021/01/14 08:27:33;;;;;;;8.27;4.65;;;4.50;70.90;;;;;;2484683;55;20889;-81
2021/01/14 08:30:20;;;;;;;7.47;4.07;;;4.50;70.90;;;;;;2488829;55;20945;-80
2021/01/14 08:32:49;;;;;;;9.65;5.20;;;4.30;70.70;;;;;;2484768;55;21028;-80
2021/01/14 08:35:24;;;;;;;9.70;5.10;;;4.50;71.00;;;;;;2487032;55;20995;-80
2021/01/14 08:44:39;;;;;;;9.00;5.13;;;4.50;71.10;;;;;;2418998;55;3570463;-81
2021/01/14 08:47:06;;;;;;;9.10;5.10;;;4.60;70.90;;;;;;2490736;55;20917;-80
2021/01/14 08:49:37;;;;;;;10.02;5.55;;;4.60;70.80;;;;;;2489085;55;21014;-81
2021/01/14 08:52:04;;;;;;;12.32;6.18;;;4.60;70.90;;;;;;2257320;56;21000;-79
2021/01/14 08:54:41;;;;;;;8.70;4.85;;;4.60;71.00;;;;;;2486422;55;21001;-80
2021/01/14 08:57:07;;;;;;;9.30;4.80;;;4.60;71.10;;;;;;2489942;55;21754;-81
2021/01/14 08:59:34;;;;;;;8.27;4.87;;;4.60;71.10;;;;;;2489237;55;20985;-80
2021/01/14 09:02:00;;;;;;;8.23;4.47;;;4.60;71.20;;;;;;2484954;55;21477;-82
2021/01/14 09:04:27;;;;;;;8.02;4.50;;;4.60;71.30;;;;;;2489219;55;20916;-81
2021/01/14 09:06:54;;;;;;;6.65;3.97;;;4.70;71.40;;;;;;2456526;55;21055;-82
2021/01/14 09:09:30;;;;;;;6.75;3.87;;;4.80;71.60;;;;;;2488544;55;20936;-81
2021/01/14 09:11:57;;;;;;;7.68;4.12;;;4.80;71.60;;;;;;2476623;55;21457;-79
2021/01/14 09:14:24;;;;;;;8.45;4.68;;;4.80;71.60;;;;;;2490278;55;20945;-80
2021/01/14 09:16:51;;;;;;;13.77;6.00;;;4.80;71.40;;;;;;2489188;55;21740;-80
2021/01/14 09:20:03;;;;;;;11.18;6.20;;;4.80;71.20;;;;;;2481203;55;21005;-80
2021/01/14 09:22:29;;;;;;;10.93;6.12;;;4.80;70.90;;;;;;2489561;55;20985;-79
2021/01/14 09:24:55;;;;;;;9.35;4.50;;;4.80;70.80;;;;;;2488313;55;21069;-80
2021/01/14 09:27:25;;;;;;;6.07;3.87;;;4.80;70.80;;;;;;2485755;55;20921;-81
2021/01/14 09:29:52;;;;;;;5.57;3.17;;;4.80;70.80;;;;;;2489584;55;20993;-81
2021/01/14 09:32:21;;;;;;;5.32;3.15;;;4.80;70.80;;;;;;2484929;55;20921;-80
2021/01/14 09:34:48;;;;;;;4.93;2.67;;;4.80;70.80;;;;;;2473782;55;21493;-80
2021/01/14 09:37:18;;;;;;;5.97;2.33;;;4.80;70.80;;;;;;2477486;55;20949;-81
2021/01/14 09:39:46;;;;;;;4.93;2.67;;;4.80;70.80;;;;;;2482274;55;20957;-79
2021/01/14 09:42:12;;;;;;;6.03;2.60;;;4.80;70.80;;;;;;2261367;56;21009;-79
2021/01/14 09:44:39;;;;;;;5.20;2.90;;;4.80;70.50;;;;;;2490573;55;21001;-79
2021/01/14 09:47:48;;;;;;;4.90;2.83;;;4.80;70.40;;;;;;2483056;55;21094;-78
2021/01/14 09:50:15;;;;;;;5.55;3.08;;;4.80;70.30;;;;;;2485821;55;20977;-80
2021/01/14 09:52:44;;;;;;;6.80;3.87;;;4.80;70.30;;;;;;2487488;55;20913;-79
2021/01/14 09:55:13;;;;;;;6.05;3.45;;;4.80;70.20;;;;;;2486813;55;20933;-80
2021/01/14 09:59:08;;;;;;;8.35;3.80;;;4.80;70.30;;;;;;2487139;55;21309;-79
2021/01/14 10:01:39;;;;;;;6.15;3.10;;;4.80;70.30;;;;;;2489766;55;21541;-78
2021/01/14 10:04:10;;;;;;;6.45;3.25;;;4.80;70.30;;;;;;2490875;55;21423;-78
2021/01/14 10:06:53;;;;;;;7.25;3.12;;;4.80;70.40;;;;;;2490762;55;20925;-79
2021/01/14 10:09:23;;;;;;;5.10;3.17;;;4.80;70.40;;;;;;2485220;55;21040;-78
2021/01/14 10:11:50;;;;;;;6.80;3.25;;;4.80;70.50;;;;;;2484074;55;21520;-81
2021/01/14 10:14:20;;;;;;;4.87;2.65;;;4.90;70.60;;;;;;2489665;55;21477;-79
2021/01/14 10:16:47;;;;;;;7.15;3.70;;;4.80;70.60;;;;;;2486169;55;20949;-79
2021/01/14 10:19:20;;;;;;;6.37;3.87;;;4.80;70.60;;;;;;2479737;55;21462;-79
2021/01/14 10:21:46;;;;;;;;;;;4.80;70.60;;;;;;2493057;55;20953;-79
2021/01/14 10:24:33;;;;;;;4.87;3.05;;;4.90;70.50;;;;;;2485450;55;20083;-79
2021/01/14 10:27:15;;;;;;;5.45;2.70;;;4.90;70.70;;;;;;2487147;55;20937;-79
2021/01/14 10:33:17;;;;;;;5.62;3.00;;;4.90;70.80;;;;;;2487529;55;20964;-78
2021/01/14 10:35:52;;;;;;;5.30;3.20;;;4.90;70.80;;;;;;2486987;55;20942;-79
2021/01/14 10:38:20;;;;;;;5.35;3.33;;;4.90;70.90;;;;;;2483550;55;20981;-78
2021/01/14 10:41:27;;;;;;;5.55;3.33;;;4.90;70.90;;;;;;2489765;55;20945;-79
2021/01/14 10:44:03;;;;;;;6.28;3.60;;;4.90;70.90;;;;;;2481431;55;20947;-77
2021/01/14 10:46:31;;;;;;;7.72;4.00;;;5.00;71.20;;;;;;2488967;55;21001;-78
2021/01/14 10:49:09;;;;;;;8.63;4.45;;;5.00;71.20;;;;;;2486018;55;21032;-79
2021/01/14 10:51:37;;;;;;;6.70;3.67;;;5.00;71.20;;;;;;2478986;55;21058;-79
2021/01/14 10:54:03;;;;;;;7.22;3.92;;;5.00;71.10;;;;;;2488426;55;21457;-79
2021/01/14 10:56:31;;;;;;;6.47;3.90;;;5.00;71.10;;;;;;2485591;55;20949;-80
2021/01/14 10:59:06;;;;;;;5.28;3.17;;;5.00;71.10;;;;;;2491050;55;20992;-79
2021/01/14 11:01:36;;;;;;;7.10;3.17;;;5.00;71.10;;;;;;2489790;55;20921;-79
2021/01/14 11:04:11;;;;;;;4.80;2.80;;;5.00;71.00;;;;;;2483720;55;21052;-80
2021/01/14 11:06:44;;;;;;;5.07;3.00;;;5.00;71.00;;;;;;2468636;55;20965;-80
2021/01/14 11:09:11;;;;;;;5.78;2.90;;;5.20;71.10;;;;;;2490895;55;21406;-80
2021/01/14 11:11:40;;;;;;;5.82;3.05;;;5.10;71.00;;;;;;2491106;55;20961;-79
2021/01/14 11:14:06;;;;;;;5.65;2.90;;;5.10;71.00;;;;;;2489083;55;20945;-80
2021/01/14 11:16:33;;;;;;;5.15;2.85;;;5.10;70.90;;;;;;2490833;55;20914;-79
2021/01/14 11:19:03;;;;;;;5.35;2.95;;;5.10;71.00;;;;;;2487847;55;21015;-81
2021/01/14 11:21:35;;;;;;;4.97;2.85;;;5.10;71.10;;;;;;2488453;55;20956;-80
2021/01/14 11:24:06;;;;;;;5.25;2.62;;;5.10;71.20;;;;;;2490448;55;20922;-81
2021/01/14 11:26:33;;;;;;;5.37;2.92;;;5.10;71.30;;;;;;2491072;55;21021;-80
2021/01/14 11:29:00;;;;;;;4.12;2.35;;;5.10;71.30;;;;;;2481086;55;21736;-80
2021/01/14 11:31:29;;;;;;;5.30;2.80;;;5.20;71.50;;;;;;2483815;55;20945;-80
2021/01/14 11:33:58;;;;;;;6.03;3.10;;;5.20;71.50;;;;;;2487764;55;20925;-80
2021/01/14 11:36:24;;;;;;;5.43;3.17;;;5.20;71.40;;;;;;2483148;55;21936;-79
2021/01/14 11:38:51;;;;;;;6.20;2.85;;;5.20;71.20;;;;;;2484501;55;20988;-81
2021/01/14 11:41:20;;;;;;;4.82;2.72;;;5.20;71.10;;;;;;2491352;55;21352;-80
2021/01/14 11:43:47;;;;;;;5.03;2.95;;;5.30;71.20;;;;;;2269585;56;20928;-80
2021/01/14 11:46:26;;;;;;;4.85;2.90;;;5.30;71.20;;;;;;2263408;56;21041;-80
2021/01/14 11:48:53;;;;;;;5.72;3.20;;;5.30;71.10;;;;;;2488763;55;21024;-80
2021/01/14 11:51:20;;;;;;;7.20;3.30;;;5.30;71.00;;;;;;2493000;55;21000;-80
2021/01/14 11:53:48;;;;;;;6.47;3.80;;;5.30;71.80;;;;;;2490641;55;21505;-80
2021/01/14 11:56:20;;;;;;;5.70;3.83;;;5.30;71.80;;;;;;2486822;55;20961;-80
2021/01/14 11:58:47;;;;;;;6.28;3.47;;;5.30;71.00;;;;;;2267573;56;20973;-79
2021/01/14 12:01:14;;;;;;;6.50;3.90;;;5.30;71.10;;;;;;2490477;55;21463;-80
2021/01/14 12:03:42;;;;;;;6.95;4.00;;;5.40;71.10;;;;;;2251926;56;20949;-80
2021/01/14 12:06:10;;;;;;;6.57;3.80;;;5.40;71.00;;;;;;2263841;56;21928;-80
2021/01/14 12:08:37;;;;;;;7.45;4.65;;;5.40;70.90;;;;;;2488271;55;21092;-80
2021/01/14 12:11:04;;;;;;;7.22;4.00;;;5.40;70.80;;;;;;2487437;55;21406;-80
2021/01/14 12:13:31;;;;;;;8.20;4.65;;;5.40;70.70;;;;;;2479435;55;20957;-80
2021/01/14 12:15:58;;;;;;;6.87;4.28;;;5.40;70.80;;;;;;2488510;55;20933;-80
2021/01/14 12:18:25;;;;;;;7.87;4.50;;;5.40;70.80;;;;;;2486886;55;21013;-81
2021/01/14 12:20:56;;;;;;;7.40;4.30;;;5.40;70.80;;;;;;2487076;55;21005;-80
2021/01/14 12:23:25;;;;;;;7.32;4.60;;;5.40;70.50;;;;;;2484848;55;20960;-80
2021/01/14 12:25:53;;;;;;;6.68;3.70;;;5.40;70.40;;;;;;2484998;55;21297;-80
2021/01/14 12:28:20;;;;;;;6.62;3.90;;;5.40;70.20;;;;;;2484486;55;20949;-81
2021/01/14 12:30:47;;;;;;;6.15;3.58;;;5.40;70.20;;;;;;2488443;55;21300;-80
2021/01/14 12:33:16;;;;;;;6.47;3.72;;;5.30;70.40;;;;;;2488700;55;20996;-80
2021/01/14 12:35:43;;;;;;;6.20;3.72;;;5.30;70.70;;;;;;2484912;55;20965;-79
2021/01/14 12:38:09;;;;;;;6.47;3.67;;;5.30;70.80;;;;;;2486607;55;20984;-80
2021/01/14 12:40:56;;;;;;;5.43;3.25;;;5.30;71.00;;;;;;2473189;55;21013;-80
2021/01/14 12:43:23;;;;;;;5.40;3.20;;;5.30;71.20;;;;;;2484359;55;20922;-80
2021/01/14 12:45:51;;;;;;;5.45;3.22;;;5.30;71.20;;;;;;2486901;55;21806;-80
2021/01/14 12:48:20;;;;;;;4.25;2.67;;;5.40;72.00;;;;;;2487123;55;20958;-81
2021/01/14 12:50:46;;;;;;;6.15;3.22;;;5.40;71.30;;;;;;2490684;55;20925;-80
2021/01/14 12:53:12;;;;;;;5.37;3.00;;;5.40;71.30;;;;;;2486153;55;20941;-79
2021/01/14 12:55:39;;;;;;;3.55;1.90;;;5.40;71.40;;;;;;2490143;55;21084;-80
2021/01/14 12:58:05;;;;;;;4.30;2.30;;;5.40;71.30;;;;;;2485621;55;20921;-80
2021/01/14 13:00:32;;;;;;;4.15;1.90;;;5.40;71.30;;;;;;2485390;55;20985;-81
2021/01/14 13:02:59;;;;;;;3.42;1.90;;;5.40;71.20;;;;;;2485330;55;21681;-80
2021/01/14 13:05:28;;;;;;;12.20;2.55;;;5.40;71.20;;;;;;2489907;55;21743;-81
2021/01/14 13:07:55;;;;;;;9.52;3.33;;;5.40;71.20;;;;;;2491531;55;21010;-81
2021/01/14 13:10:21;;;;;;;6.72;2.92;;;5.50;71.20;;;;;;2486963;55;21059;-80
2021/01/14 13:12:51;;;;;;;5.72;2.80;;;5.40;71.20;;;;;;2485739;55;20945;-81
2021/01/14 13:15:17;;;;;;;5.70;2.50;;;5.50;71.40;;;;;;2485111;55;20988;-80
2021/01/14 13:17:44;;;;;;;5.10;2.08;;;5.50;71.40;;;;;;2488479;55;21072;-80
2021/01/14 13:20:13;;;;;;;6.12;3.10;;;5.50;71.20;;;;;;2486271;55;20940;-80
2021/01/14 13:22:43;;;;;;;5.00;2.70;;;5.50;71.00;;;;;;2482608;55;20898;-81
2021/01/14 13:25:12;;;;;;;4.45;2.22;;;5.50;70.80;;;;;;2488501;55;21561;-82
2021/01/14 13:27:38;;;;;;;4.35;2.40;;;5.50;70.80;;;;;;2481833;55;21008;-83